sensor_id;sensor_type;location;lat;lon;timestamp;pressure;altitude;pressure_sealevel;temperature;humidity
71857;BME280;63344;46.980;28.882;2023-05-03T00:02:11;101643.09;;;7.75;nan
71857;BME280;63344;46.980;28.882;2023-05-03T00:04:39;101644.91;;;7.70;nan
71857;BME280;63344;46.980;28.882;2023-05-03T00:07:07;101644.03;;;7.70;nan
71857;BME280;63344;46.980;28.882;2023-05-03T00:09:35;101638.78;;;7.67;nan
71857;BME280;63344;46.980;28.882;2023-05-03T00:12:03;101639.66;;;7.67;nan
71857;BME280;63344;46.980;28.882;2023-05-03T00:14:31;101635.25;;;7.68;nan
71857;BME280;63344;46.980;28.882;2023-05-03T00:16:59;101636.13;;;7.68;nan
71857;BME280;63344;46.980;28.882;2023-05-03T00:19:26;101628.25;;;7.64;nan
71857;BME280;63344;46.980;28.882;2023-05-03T00:21:59;101627.47;;;7.54;nan
71857;BME280;63344;46.980;28.882;2023-05-03T00:24:26;101624.00;;;7.47;nan
71857;BME280;63344;46.980;28.882;2023-05-03T00:26:54;101621.38;;;7.44;nan
71857;BME280;63344;46.980;28.882;2023-05-03T00:29:21;101631.09;;;7.42;nan
71857;BME280;63344;46.980;28.882;2023-05-03T00:31:49;101632.94;;;7.35;nan
71857;BME280;63344;46.980;28.882;2023-05-03T00:34:16;101634.72;;;7.29;nan
71857;BME280;63344;46.980;28.882;2023-05-03T00:36:43;101631.28;;;7.21;nan
71857;BME280;63344;46.980;28.882;2023-05-03T00:39:10;101625.19;;;7.15;nan
71857;BME280;63344;46.980;28.882;2023-05-03T00:41:38;101631.38;;;7.10;nan
71857;BME280;63344;46.980;28.882;2023-05-03T00:44:05;101629.66;;;7.06;nan
71857;BME280;63344;46.980;28.882;2023-05-03T00:46:33;101625.28;;;7.03;nan
71857;BME280;63344;46.980;28.882;2023-05-03T00:49:01;101630.56;;;6.98;nan
71857;BME280;63344;46.980;28.882;2023-05-03T00:51:28;101619.19;;;6.92;nan
71857;BME280;63344;46.980;28.882;2023-05-03T00:53:56;101613.97;;;6.83;nan
71857;BME280;63344;46.980;28.882;2023-05-03T00:56:24;101613.16;;;6.77;nan
71857;BME280;63344;46.980;28.882;2023-05-03T00:58:52;101611.41;;;6.73;nan
71857;BME280;63344;46.980;28.882;2023-05-03T01:01:19;101610.59;;;6.65;nan
71857;BME280;63344;46.980;28.882;2023-05-03T01:14:43;101593.13;;;6.46;nan
71857;BME280;63344;46.980;28.882;2023-05-03T01:17:13;101594.84;;;6.50;nan
71857;BME280;63344;46.980;28.882;2023-05-03T01:19:50;101583.38;;;6.57;nan
71857;BME280;63344;46.980;28.882;2023-05-03T01:22:52;101587.72;;;6.63;nan
71857;BME280;63344;46.980;28.882;2023-05-03T01:25:22;101590.34;;;6.64;nan
71857;BME280;63344;46.980;28.882;2023-05-03T01:27:50;101582.44;;;6.66;nan
71857;BME280;63344;46.980;28.882;2023-05-03T01:30:19;101584.19;;;6.65;nan
71857;BME280;63344;46.980;28.882;2023-05-03T01:33:12;101573.69;;;6.57;nan
71857;BME280;63344;46.980;28.882;2023-05-03T01:35:48;101573.69;;;6.54;nan
71857;BME280;63344;46.980;28.882;2023-05-03T01:38:17;101581.63;;;6.53;nan
71857;BME280;63344;46.980;28.882;2023-05-03T01:40:46;101580.75;;;6.52;nan
71857;BME280;63344;46.980;28.882;2023-05-03T01:43:17;101584.28;;;6.51;nan
71857;BME280;63344;46.980;28.882;2023-05-03T01:45:46;101581.66;;;6.47;nan
71857;BME280;63344;46.980;28.882;2023-05-03T01:48:16;101578.19;;;6.42;nan
71857;BME280;63344;46.980;28.882;2023-05-03T01:50:44;101577.31;;;6.38;nan
71857;BME280;63344;46.980;28.882;2023-05-03T01:53:11;101579.97;;;6.36;nan
71857;BME280;63344;46.980;28.882;2023-05-03T01:55:39;101584.38;;;6.34;nan
71857;BME280;63344;46.980;28.882;2023-05-03T01:58:06;101583.50;;;6.32;nan
71857;BME280;63344;46.980;28.882;2023-05-03T02:00:33;101577.38;;;6.30;nan
71857;BME280;63344;46.980;28.882;2023-05-03T02:03:00;101586.16;;;6.32;nan
71857;BME280;63344;46.980;28.882;2023-05-03T02:05:28;101587.06;;;6.30;nan
71857;BME280;63344;46.980;28.882;2023-05-03T02:07:55;101584.44;;;6.25;nan
71857;BME280;63344;46.980;28.882;2023-05-03T02:10:23;101593.25;;;6.21;nan
71857;BME280;63344;46.980;28.882;2023-05-03T02:12:51;101588.00;;;6.20;nan
71857;BME280;63344;46.980;28.882;2023-05-03T02:15:19;101590.63;;;6.20;nan
71857;BME280;63344;46.980;28.882;2023-05-03T02:17:46;101585.34;;;6.16;nan
71857;BME280;63344;46.980;28.882;2023-05-03T02:20:16;101596.78;;;6.18;nan
71857;BME280;63344;46.980;28.882;2023-05-03T02:22:43;101593.25;;;6.16;nan
71857;BME280;63344;46.980;28.882;2023-05-03T02:25:11;101590.63;;;6.16;nan
71857;BME280;63344;46.980;28.882;2023-05-03T02:27:38;101602.94;;;6.13;nan
71857;BME280;63344;46.980;28.882;2023-05-03T02:30:06;101596.81;;;6.11;nan
71857;BME280;63344;46.980;28.882;2023-05-03T02:32:34;101598.56;;;6.10;nan
71857;BME280;63344;46.980;28.882;2023-05-03T02:35:02;101599.47;;;6.08;nan
71857;BME280;63344;46.980;28.882;2023-05-03T02:37:29;101603.88;;;6.04;nan
71857;BME280;63344;46.980;28.882;2023-05-03T02:39:57;101597.75;;;5.97;nan
71857;BME280;63344;46.980;28.882;2023-05-03T02:42:24;101599.53;;;5.89;nan
71857;BME280;63344;46.980;28.882;2023-05-03T02:44:51;101604.78;;;5.86;nan
71857;BME280;63344;46.980;28.882;2023-05-03T02:47:19;101605.69;;;5.84;nan
71857;BME280;63344;46.980;28.882;2023-05-03T02:49:47;101603.06;;;5.84;nan
71857;BME280;63344;46.980;28.882;2023-05-03T02:52:15;101609.19;;;5.84;nan
71857;BME280;63344;46.980;28.882;2023-05-03T02:54:42;101604.81;;;5.83;nan
71857;BME280;63344;46.980;28.882;2023-05-03T02:57:10;101610.06;;;5.85;nan
71857;BME280;63344;46.980;28.882;2023-05-03T02:59:38;101616.22;;;5.81;nan
71857;BME280;63344;46.980;28.882;2023-05-03T03:02:05;101614.50;;;5.79;nan
71857;BME280;63344;46.980;28.882;2023-05-03T03:04:33;101610.09;;;5.80;nan
71857;BME280;63344;46.980;28.882;2023-05-03T03:07:00;101603.94;;;5.78;nan
71857;BME280;63344;46.980;28.882;2023-05-03T03:09:28;101602.16;;;5.78;nan
71857;BME280;63344;46.980;28.882;2023-05-03T03:11:55;101609.16;;;5.89;nan
71857;BME280;63344;46.980;28.882;2023-05-03T03:14:23;101603.84;;;6.09;nan
71857;BME280;63344;46.980;28.882;2023-05-03T03:16:50;101607.22;;;6.43;nan
71857;BME280;63344;46.980;28.882;2023-05-03T03:19:18;101600.81;;;6.75;nan
71857;BME280;63344;46.980;28.882;2023-05-03T03:21:45;101602.38;;;7.01;nan
71857;BME280;63344;46.980;28.882;2023-05-03T03:24:13;101606.59;;;7.25;nan
71857;BME280;63344;46.980;28.882;2023-05-03T03:26:42;101604.56;;;7.53;nan
71857;BME280;63344;46.980;28.882;2023-05-03T03:29:09;101599.69;;;7.95;nan
71857;BME280;63344;46.980;28.882;2023-05-03T03:31:40;101602.78;;;8.29;nan
71857;BME280;63344;46.980;28.882;2023-05-03T03:34:08;101612.00;;;8.66;nan
71857;BME280;63344;46.980;28.882;2023-05-03T03:36:37;101606.09;;;9.04;nan
71857;BME280;63344;46.980;28.882;2023-05-03T03:39:05;101608.13;;;9.41;nan
71857;BME280;63344;46.980;28.882;2023-05-03T03:41:37;101611.81;;;9.79;nan
71857;BME280;63344;46.980;28.882;2023-05-03T03:44:09;101604.88;;;10.17;nan
71857;BME280;63344;46.980;28.882;2023-05-03T03:46:39;101612.81;;;10.59;nan
71857;BME280;63344;46.980;28.882;2023-05-03T03:49:07;101606.94;;;10.82;nan
71857;BME280;63344;46.980;28.882;2023-05-03T03:51:35;101612.38;;;11.15;nan
71857;BME280;63344;46.980;28.882;2023-05-03T03:54:04;101606.84;;;11.57;nan
71857;BME280;63344;46.980;28.882;2023-05-03T03:56:32;101617.28;;;11.98;nan
71857;BME280;63344;46.980;28.882;2023-05-03T03:59:05;101613.94;;;12.21;nan
71857;BME280;63344;46.980;28.882;2023-05-03T04:01:34;101618.34;;;12.22;nan
71857;BME280;63344;46.980;28.882;2023-05-03T04:04:03;101619.47;;;12.44;nan
71857;BME280;63344;46.980;28.882;2023-05-03T04:06:42;101615.88;;;12.73;nan
71857;BME280;63344;46.980;28.882;2023-05-03T04:09:10;101621.63;;;12.88;nan
71857;BME280;63344;46.980;28.882;2023-05-03T04:11:39;101612.59;;;13.20;nan
71857;BME280;63344;46.980;28.882;2023-05-03T04:14:10;101608.25;;;13.44;nan
71857;BME280;63344;46.980;28.882;2023-05-03T04:16:40;101620.16;;;13.59;nan
71857;BME280;63344;46.980;28.882;2023-05-03T04:19:08;101614.81;;;13.84;nan
71857;BME280;63344;46.980;28.882;2023-05-03T04:21:35;101618.78;;;14.21;nan
71857;BME280;63344;46.980;28.882;2023-05-03T04:24:03;101625.03;;;14.44;nan
71857;BME280;63344;46.980;28.882;2023-05-03T04:26:32;101624.19;;;14.89;nan
71857;BME280;63344;46.980;28.882;2023-05-03T04:29:00;101614.06;;;15.18;nan
71857;BME280;63344;46.980;28.882;2023-05-03T04:31:28;101614.16;;;15.57;nan
71857;BME280;63344;46.980;28.882;2023-05-03T04:33:57;101630.25;;;15.98;nan
71857;BME280;63344;46.980;28.882;2023-05-03T04:36:25;101629.97;;;16.23;nan
71857;BME280;63344;46.980;28.882;2023-05-03T04:39:10;101631.19;;;16.56;nan
71857;BME280;63344;46.980;28.882;2023-05-03T04:41:39;101625.50;;;16.62;nan
71857;BME280;63344;46.980;28.882;2023-05-03T04:44:07;101628.75;;;16.87;nan
71857;BME280;63344;46.980;28.882;2023-05-03T04:46:35;101636.13;;;17.01;nan
71857;BME280;63344;46.980;28.882;2023-05-03T04:49:03;101633.00;;;17.10;nan
71857;BME280;63344;46.980;28.882;2023-05-03T04:51:30;101626.38;;;17.18;nan
71857;BME280;63344;46.980;28.882;2023-05-03T04:54:00;101625.97;;;17.25;nan
71857;BME280;63344;46.980;28.882;2023-05-03T04:56:28;101625.19;;;17.58;nan
71857;BME280;63344;46.980;28.882;2023-05-03T04:59:16;101622.31;;;17.79;nan
71857;BME280;63344;46.980;28.882;2023-05-03T05:01:45;101631.63;;;18.06;nan
71857;BME280;63344;46.980;28.882;2023-05-03T05:04:13;101633.75;;;18.33;nan
71857;BME280;63344;46.980;28.882;2023-05-03T05:06:40;101637.72;;;18.59;nan
71857;BME280;63344;46.980;28.882;2023-05-03T05:09:19;101640.84;;;18.99;nan
71857;BME280;63344;46.980;28.882;2023-05-03T05:11:48;101644.88;;;19.22;nan
71857;BME280;63344;46.980;28.882;2023-05-03T05:14:15;101641.03;;;19.26;nan
71857;BME280;63344;46.980;28.882;2023-05-03T05:16:43;101645.53;;;19.42;nan
71857;BME280;63344;46.980;28.882;2023-05-03T05:19:11;101648.16;;;19.88;nan
71857;BME280;63344;46.980;28.882;2023-05-03T05:21:39;101646.41;;;19.87;nan
71857;BME280;63344;46.980;28.882;2023-05-03T05:24:06;101643.19;;;19.66;nan
71857;BME280;63344;46.980;28.882;2023-05-03T05:26:34;101650.88;;;19.27;nan
71857;BME280;63344;46.980;28.882;2023-05-03T05:29:01;101647.03;;;18.85;nan
71857;BME280;63344;46.980;28.882;2023-05-03T05:31:29;101643.50;;;18.36;nan
71857;BME280;63344;46.980;28.882;2023-05-03T05:33:56;101650.47;;;17.89;nan
71857;BME280;63344;46.980;28.882;2023-05-03T05:36:24;101649.22;;;17.44;nan
71857;BME280;63344;46.980;28.882;2023-05-03T05:38:51;101652.81;;;17.08;nan
71857;BME280;63344;46.980;28.882;2023-05-03T05:41:19;101667.41;;;16.64;nan
71857;BME280;63344;46.980;28.882;2023-05-03T05:43:46;101650.72;;;16.20;nan
71857;BME280;63344;46.980;28.882;2023-05-03T05:46:14;101658.69;;;15.82;nan
71857;BME280;63344;46.980;28.882;2023-05-03T05:48:42;101660.91;;;15.50;nan
71857;BME280;63344;46.980;28.882;2023-05-03T05:51:10;101658.59;;;15.20;nan
71857;BME280;63344;46.980;28.882;2023-05-03T05:53:37;101666.47;;;15.01;nan
71857;BME280;63344;46.980;28.882;2023-05-03T05:56:06;101670.34;;;14.72;nan
71857;BME280;63344;46.980;28.882;2023-05-03T05:58:35;101673.63;;;14.55;nan
71857;BME280;63344;46.980;28.882;2023-05-03T06:01:04;101668.41;;;14.52;nan
71857;BME280;63344;46.980;28.882;2023-05-03T06:03:33;101666.69;;;14.49;nan
71857;BME280;63344;46.980;28.882;2023-05-03T06:06:01;101674.19;;;14.40;nan
71857;BME280;63344;46.980;28.882;2023-05-03T06:08:29;101674.50;;;14.32;nan
71857;BME280;63344;46.980;28.882;2023-05-03T06:10:56;101684.72;;;14.21;nan
71857;BME280;63344;46.980;28.882;2023-05-03T06:13:23;101684.66;;;14.22;nan
71857;BME280;63344;46.980;28.882;2023-05-03T06:15:51;101685.16;;;14.08;nan
71857;BME280;63344;46.980;28.882;2023-05-03T06:18:19;101683.41;;;14.07;nan
71857;BME280;63344;46.980;28.882;2023-05-03T06:20:48;101680.78;;;14.06;nan
71857;BME280;63344;46.980;28.882;2023-05-03T06:23:16;101684.22;;;14.09;nan
71857;BME280;63344;46.980;28.882;2023-05-03T06:25:46;101688.47;;;14.15;nan
71857;BME280;63344;46.980;28.882;2023-05-03T06:28:14;101676.88;;;14.16;nan
71857;BME280;63344;46.980;28.882;2023-05-03T06:30:47;101684.38;;;14.30;nan
71857;BME280;63344;46.980;28.882;2023-05-03T06:33:14;101676.94;;;14.38;nan
71857;BME280;63344;46.980;28.882;2023-05-03T06:35:42;101683.84;;;14.44;nan
71857;BME280;63344;46.980;28.882;2023-05-03T06:38:21;101685.19;;;14.55;nan
71857;BME280;63344;46.980;28.882;2023-05-03T06:40:49;101683.63;;;14.73;nan
71857;BME280;63344;46.980;28.882;2023-05-03T06:43:16;101680.66;;;14.81;nan
71857;BME280;63344;46.980;28.882;2023-05-03T06:45:44;101678.72;;;14.85;nan
71857;BME280;63344;46.980;28.882;2023-05-03T06:48:11;101676.75;;;14.90;nan
71857;BME280;63344;46.980;28.882;2023-05-03T06:50:39;101671.84;;;15.01;nan
71857;BME280;63344;46.980;28.882;2023-05-03T06:53:07;101678.81;;;15.05;nan
71857;BME280;63344;46.980;28.882;2023-05-03T06:55:42;101680.31;;;15.12;nan
71857;BME280;63344;46.980;28.882;2023-05-03T06:58:11;101680.06;;;15.19;nan
71857;BME280;63344;46.980;28.882;2023-05-03T07:00:39;101678.78;;;15.27;nan
71857;BME280;63344;46.980;28.882;2023-05-03T07:03:10;101678.53;;;15.33;nan
71857;BME280;63344;46.980;28.882;2023-05-03T07:05:37;101683.31;;;15.47;nan
71857;BME280;63344;46.980;28.882;2023-05-03T07:08:07;101686.78;;;15.49;nan
71857;BME280;63344;46.980;28.882;2023-05-03T07:10:36;101684.75;;;15.56;nan
71857;BME280;63344;46.980;28.882;2023-05-03T07:13:04;101669.53;;;15.57;nan
71857;BME280;63344;46.980;28.882;2023-05-03T07:15:32;101681.81;;;15.62;nan
71857;BME280;63344;46.980;28.882;2023-05-03T07:17:59;101680.59;;;15.69;nan
71857;BME280;63344;46.980;28.882;2023-05-03T07:20:29;101670.53;;;15.76;nan
71857;BME280;63344;46.980;28.882;2023-05-03T07:22:56;101668.03;;;15.92;nan
71857;BME280;63344;46.980;28.882;2023-05-03T07:25:24;101675.75;;;16.00;nan
71857;BME280;63344;46.980;28.882;2023-05-03T07:27:51;101672.63;;;16.09;nan
71857;BME280;63344;46.980;28.882;2023-05-03T07:30:19;101668.69;;;16.18;nan
71857;BME280;63344;46.980;28.882;2023-05-03T07:32:47;101671.78;;;16.27;nan
71857;BME280;63344;46.980;28.882;2023-05-03T07:35:15;101668.69;;;16.37;nan
71857;BME280;63344;46.980;28.882;2023-05-03T07:37:42;101662.47;;;16.36;nan
71857;BME280;63344;46.980;28.882;2023-05-03T07:40:17;101662.97;;;16.44;nan
71857;BME280;63344;46.980;28.882;2023-05-03T07:42:45;101667.69;;;16.58;nan
71857;BME280;63344;46.980;28.882;2023-05-03T07:45:13;101668.28;;;16.65;nan
71857;BME280;63344;46.980;28.882;2023-05-03T07:47:40;101668.19;;;16.66;nan
71857;BME280;63344;46.980;28.882;2023-05-03T07:50:08;101658.28;;;16.68;nan
71857;BME280;63344;46.980;28.882;2023-05-03T07:52:36;101664.66;;;16.85;nan
71857;BME280;63344;46.980;28.882;2023-05-03T07:55:04;101668.31;;;16.84;nan
71857;BME280;63344;46.980;28.882;2023-05-03T07:57:32;101659.16;;;16.88;nan
71857;BME280;63344;46.980;28.882;2023-05-03T08:00:01;101679.72;;;17.06;nan
71857;BME280;63344;46.980;28.882;2023-05-03T08:02:28;101675.81;;;17.14;nan
71857;BME280;63344;46.980;28.882;2023-05-03T08:04:56;101660.56;;;17.14;nan
71857;BME280;63344;46.980;28.882;2023-05-03T08:07:23;101673.06;;;17.32;nan
71857;BME280;63344;46.980;28.882;2023-05-03T08:09:51;101676.41;;;17.38;nan
71857;BME280;63344;46.980;28.882;2023-05-03T08:12:19;101656.56;;;17.40;nan
71857;BME280;63344;46.980;28.882;2023-05-03T08:14:47;101660.69;;;17.47;nan
71857;BME280;63344;46.980;28.882;2023-05-03T08:17:14;101661.31;;;17.70;nan
71857;BME280;63344;46.980;28.882;2023-05-03T08:19:42;101659.50;;;17.88;nan
71857;BME280;63344;46.980;28.882;2023-05-03T08:22:09;101671.72;;;18.11;nan
71857;BME280;63344;46.980;28.882;2023-05-03T08:24:38;101665.88;;;19.01;nan
71857;BME280;63344;46.980;28.882;2023-05-03T08:27:05;101656.25;;;20.02;nan
71857;BME280;63344;46.980;28.882;2023-05-03T08:29:34;101657.38;;;20.84;nan
71857;BME280;63344;46.980;28.882;2023-05-03T08:32:03;101653.25;;;21.73;nan
71857;BME280;63344;46.980;28.882;2023-05-03T08:34:31;101654.97;;;22.38;nan
71857;BME280;63344;46.980;28.882;2023-05-03T08:36:58;101653.66;;;22.57;nan
71857;BME280;63344;46.980;28.882;2023-05-03T08:39:26;101651.78;;;22.94;nan
71857;BME280;63344;46.980;28.882;2023-05-03T08:41:54;101645.03;;;23.83;nan
71857;BME280;63344;46.980;28.882;2023-05-03T08:44:22;101653.38;;;24.61;nan
71857;BME280;63344;46.980;28.882;2023-05-03T08:47:04;101643.16;;;24.97;nan
71857;BME280;63344;46.980;28.882;2023-05-03T08:49:53;101654.81;;;25.73;nan
71857;BME280;63344;46.980;28.882;2023-05-03T08:52:25;101633.53;;;26.30;nan
71857;BME280;63344;46.980;28.882;2023-05-03T08:54:52;101643.91;;;27.16;nan
71857;BME280;63344;46.980;28.882;2023-05-03T08:57:22;101650.38;;;27.54;nan
71857;BME280;63344;46.980;28.882;2023-05-03T08:59:54;101640.47;;;27.63;nan
71857;BME280;63344;46.980;28.882;2023-05-03T09:02:27;101636.63;;;27.26;nan
71857;BME280;63344;46.980;28.882;2023-05-03T09:04:55;101632.38;;;27.80;nan
71857;BME280;63344;46.980;28.882;2023-05-03T09:07:23;101633.19;;;28.10;nan
71857;BME280;63344;46.980;28.882;2023-05-03T09:09:51;101636.56;;;28.59;nan
71857;BME280;63344;46.980;28.882;2023-05-03T09:12:36;101634.00;;;28.58;nan
71857;BME280;63344;46.980;28.882;2023-05-03T09:15:07;101635.34;;;28.44;nan
71857;BME280;63344;46.980;28.882;2023-05-03T09:17:35;101616.63;;;28.95;nan
71857;BME280;63344;46.980;28.882;2023-05-03T09:20:03;101630.47;;;28.66;nan
71857;BME280;63344;46.980;28.882;2023-05-03T09:22:33;101624.59;;;29.06;nan
71857;BME280;63344;46.980;28.882;2023-05-03T09:25:00;101630.91;;;29.78;nan
71857;BME280;63344;46.980;28.882;2023-05-03T09:27:28;101633.88;;;28.95;nan
71857;BME280;63344;46.980;28.882;2023-05-03T09:30:03;101634.47;;;28.16;nan
71857;BME280;63344;46.980;28.882;2023-05-03T09:32:47;101640.25;;;28.03;nan
71857;BME280;63344;46.980;28.882;2023-05-03T09:35:14;101635.59;;;27.66;nan
71857;BME280;63344;46.980;28.882;2023-05-03T09:37:42;101629.78;;;28.36;nan
71857;BME280;63344;46.980;28.882;2023-05-03T09:40:13;101625.72;;;28.12;nan
71857;BME280;63344;46.980;28.882;2023-05-03T09:43:07;101609.03;;;27.39;nan
71857;BME280;63344;46.980;28.882;2023-05-03T09:45:38;101617.94;;;26.92;nan
71857;BME280;63344;46.980;28.882;2023-05-03T09:48:23;101616.19;;;26.91;nan
71857;BME280;63344;46.980;28.882;2023-05-03T09:50:52;101614.50;;;28.06;nan
71857;BME280;63344;46.980;28.882;2023-05-03T09:53:21;101628.19;;;29.07;nan
71857;BME280;63344;46.980;28.882;2023-05-03T09:55:52;101615.91;;;28.75;nan
71857;BME280;63344;46.980;28.882;2023-05-03T09:58:23;101618.06;;;28.44;nan
71857;BME280;63344;46.980;28.882;2023-05-03T10:00:52;101610.44;;;28.75;nan
71857;BME280;63344;46.980;28.882;2023-05-03T10:03:38;101606.72;;;30.00;nan
71857;BME280;63344;46.980;28.882;2023-05-03T10:06:28;101599.91;;;30.12;nan
71857;BME280;63344;46.980;28.882;2023-05-03T10:09:13;101596.53;;;30.69;nan
71857;BME280;63344;46.980;28.882;2023-05-03T10:11:52;101621.88;;;31.14;nan
71857;BME280;63344;46.980;28.882;2023-05-03T10:14:20;101599.09;;;30.20;nan
71857;BME280;63344;46.980;28.882;2023-05-03T10:16:49;101614.00;;;29.91;nan
71857;BME280;63344;46.980;28.882;2023-05-03T10:19:28;101613.44;;;29.62;nan
71857;BME280;63344;46.980;28.882;2023-05-03T10:22:09;101601.91;;;29.50;nan
71857;BME280;63344;46.980;28.882;2023-05-03T10:30:38;101607.59;;;29.12;nan
71857;BME280;63344;46.980;28.882;2023-05-03T10:35:41;101586.75;;;29.02;nan
71857;BME280;63344;46.980;28.882;2023-05-03T10:38:24;101607.41;;;28.96;nan
71857;BME280;63344;46.980;28.882;2023-05-03T10:40:52;101598.56;;;28.84;nan
71857;BME280;63344;46.980;28.882;2023-05-03T10:48:24;101607.19;;;27.20;nan
71857;BME280;63344;46.980;28.882;2023-05-03T10:50:53;101596.31;;;26.50;nan
71857;BME280;63344;46.980;28.882;2023-05-03T10:53:39;101590.19;;;26.27;nan
71857;BME280;63344;46.980;28.882;2023-05-03T10:56:11;101599.53;;;26.75;nan
71857;BME280;63344;46.980;28.882;2023-05-03T10:58:46;101584.72;;;27.65;nan
71857;BME280;63344;46.980;28.882;2023-05-03T11:01:17;101594.94;;;28.10;nan
71857;BME280;63344;46.980;28.882;2023-05-03T11:03:51;101587.19;;;28.06;nan
71857;BME280;63344;46.980;28.882;2023-05-03T11:06:32;101581.16;;;27.45;nan
71857;BME280;63344;46.980;28.882;2023-05-03T11:09:02;101587.22;;;26.90;nan
71857;BME280;63344;46.980;28.882;2023-05-03T11:11:30;101571.38;;;27.62;nan
71857;BME280;63344;46.980;28.882;2023-05-03T11:13:58;101575.75;;;27.92;nan
71857;BME280;63344;46.980;28.882;2023-05-03T11:16:25;101573.88;;;27.26;nan
71857;BME280;63344;46.980;28.882;2023-05-03T11:18:53;101575.09;;;26.13;nan
71857;BME280;63344;46.980;28.882;2023-05-03T11:21:22;101570.97;;;25.36;nan
71857;BME280;63344;46.980;28.882;2023-05-03T11:23:49;101569.78;;;25.18;nan
71857;BME280;63344;46.980;28.882;2023-05-03T11:26:17;101570.59;;;25.30;nan
71857;BME280;63344;46.980;28.882;2023-05-03T11:28:45;101567.63;;;25.54;nan
71857;BME280;63344;46.980;28.882;2023-05-03T11:31:17;101558.03;;;25.80;nan
71857;BME280;63344;46.980;28.882;2023-05-03T11:33:44;101555.94;;;26.94;nan
71857;BME280;63344;46.980;28.882;2023-05-03T11:36:14;101541.28;;;27.34;nan
71857;BME280;63344;46.980;28.882;2023-05-03T11:38:42;101537.81;;;27.42;nan
71857;BME280;63344;46.980;28.882;2023-05-03T11:41:14;101543.72;;;26.89;nan
71857;BME280;63344;46.980;28.882;2023-05-03T11:43:58;101536.81;;;25.84;nan
71857;BME280;63344;46.980;28.882;2023-05-03T11:46:40;101540.50;;;25.73;nan
71857;BME280;63344;46.980;28.882;2023-05-03T11:49:16;101534.25;;;25.82;nan
71857;BME280;63344;46.980;28.882;2023-05-03T11:51:44;101531.88;;;25.68;nan
71857;BME280;63344;46.980;28.882;2023-05-03T11:54:14;101530.66;;;25.72;nan
71857;BME280;63344;46.980;28.882;2023-05-03T11:56:55;101522.84;;;26.39;nan
71857;BME280;63344;46.980;28.882;2023-05-03T11:59:37;101525.06;;;27.03;nan
71857;BME280;63344;46.980;28.882;2023-05-03T12:02:06;101515.66;;;25.88;nan
71857;BME280;63344;46.980;28.882;2023-05-03T12:04:36;101511.31;;;25.44;nan
71857;BME280;63344;46.980;28.882;2023-05-03T12:07:11;101506.31;;;25.08;nan
71857;BME280;63344;46.980;28.882;2023-05-03T12:09:41;101527.25;;;24.63;nan
71857;BME280;63344;46.980;28.882;2023-05-03T12:12:18;101518.59;;;24.70;nan
71857;BME280;63344;46.980;28.882;2023-05-03T12:14:55;101504.91;;;25.13;nan
71857;BME280;63344;46.980;28.882;2023-05-03T12:17:38;101514.28;;;25.41;nan
71857;BME280;63344;46.980;28.882;2023-05-03T12:20:23;101510.63;;;25.52;nan
71857;BME280;63344;46.980;28.882;2023-05-03T12:23:11;101506.63;;;25.87;nan
71857;BME280;63344;46.980;28.882;2023-05-03T12:25:41;101511.47;;;26.05;nan
71857;BME280;63344;46.980;28.882;2023-05-03T12:28:12;101490.97;;;25.79;nan
71857;BME280;63344;46.980;28.882;2023-05-03T12:30:46;101499.75;;;25.83;nan
71857;BME280;63344;46.980;28.882;2023-05-03T12:33:15;101496.97;;;25.73;nan
71857;BME280;63344;46.980;28.882;2023-05-03T12:35:43;101491.25;;;26.07;nan
71857;BME280;63344;46.980;28.882;2023-05-03T12:38:14;101478.81;;;26.34;nan
71857;BME280;63344;46.980;28.882;2023-05-03T12:40:44;101475.34;;;25.72;nan
71857;BME280;63344;46.980;28.882;2023-05-03T12:43:15;101476.03;;;25.33;nan
71857;BME280;63344;46.980;28.882;2023-05-03T12:45:43;101479.69;;;25.22;nan
71857;BME280;63344;46.980;28.882;2023-05-03T12:48:16;101481.38;;;25.44;nan
71857;BME280;63344;46.980;28.882;2023-05-03T12:50:43;101468.91;;;25.21;nan
71857;BME280;63344;46.980;28.882;2023-05-03T12:53:13;101473.63;;;25.19;nan
71857;BME280;63344;46.980;28.882;2023-05-03T12:55:44;101466.53;;;25.07;nan
71857;BME280;63344;46.980;28.882;2023-05-03T12:58:17;101462.88;;;24.75;nan
71857;BME280;63344;46.980;28.882;2023-05-03T13:00:47;101464.00;;;24.73;nan
71857;BME280;63344;46.980;28.882;2023-05-03T13:03:44;101471.69;;;24.68;nan
71857;BME280;63344;46.980;28.882;2023-05-03T13:06:31;101461.41;;;24.39;nan
71857;BME280;63344;46.980;28.882;2023-05-03T13:09:07;101464.91;;;24.18;nan
71857;BME280;63344;46.980;28.882;2023-05-03T13:11:35;101454.28;;;24.27;nan
71857;BME280;63344;46.980;28.882;2023-05-03T13:14:02;101447.94;;;24.05;nan
71857;BME280;63344;46.980;28.882;2023-05-03T13:16:30;101438.94;;;23.71;nan
71857;BME280;63344;46.980;28.882;2023-05-03T13:18:58;101458.56;;;23.63;nan
71857;BME280;63344;46.980;28.882;2023-05-03T13:21:25;101433.66;;;23.58;nan
71857;BME280;63344;46.980;28.882;2023-05-03T13:23:54;101442.41;;;23.61;nan
71857;BME280;63344;46.980;28.882;2023-05-03T13:26:22;101439.44;;;23.64;nan
71857;BME280;63344;46.980;28.882;2023-05-03T13:28:50;101447.22;;;23.69;nan
71857;BME280;63344;46.980;28.882;2023-05-03T13:31:17;101437.81;;;23.62;nan
71857;BME280;63344;46.980;28.882;2023-05-03T13:33:46;101436.25;;;23.59;nan
71857;BME280;63344;46.980;28.882;2023-05-03T13:36:14;101445.84;;;23.52;nan
71857;BME280;63344;46.980;28.882;2023-05-03T13:38:41;101444.25;;;23.50;nan
71857;BME280;63344;46.980;28.882;2023-05-03T13:41:09;101448.91;;;23.36;nan
71857;BME280;63344;46.980;28.882;2023-05-03T13:43:36;101449.16;;;23.22;nan